createdAt,value
2016-09-04T00:00:34.406Z,0.00
2016-09-04T00:01:34.932Z,0.00
2016-09-04T00:02:35.427Z,0.00
2016-09-04T00:03:35.955Z,0.00
2016-09-04T00:04:36.455Z,0.00
2016-09-04T00:05:36.973Z,0.00
2016-09-04T00:06:37.476Z,0.00
2016-09-04T00:07:37.993Z,0.00
2016-09-04T00:08:38.504Z,0.00
2016-09-04T00:09:39.033Z,0.00
2016-09-04T00:10:39.538Z,0.00
2016-09-04T00:11:40.202Z,0.00
2016-09-04T00:12:40.569Z,0.00
2016-09-04T00:13:41.082Z,0.00
2016-09-04T00:14:41.589Z,0.00
2016-09-04T00:15:42.250Z,0.00
2016-09-04T00:16:42.612Z,0.00
2016-09-04T00:17:43.123Z,0.00
2016-09-04T00:18:44.389Z,0.00
2016-09-04T00:19:44.149Z,0.00
2016-09-04T00:20:44.670Z,0.00
2016-09-04T00:21:45.179Z,0.00
2016-09-04T00:22:45.689Z,0.00
2016-09-04T00:23:46.203Z,0.00
2016-09-04T00:24:46.893Z,0.00
2016-09-04T00:25:47.237Z,0.00
2016-09-04T00:26:47.775Z,0.00
2016-09-04T00:27:48.277Z,0.00
2016-09-04T00:28:48.769Z,0.00
2016-09-04T00:29:49.283Z,0.00
2016-09-04T00:30:49.793Z,0.00
2016-09-04T00:31:50.309Z,0.00
2016-09-04T00:32:50.823Z,0.00
2016-09-04T00:33:51.337Z,0.00
2016-09-04T00:34:53.048Z,0.00
2016-09-04T00:35:52.356Z,0.00
2016-09-04T00:36:52.866Z,0.00
2016-09-04T00:37:53.377Z,0.00
2016-09-04T00:38:53.908Z,0.00
2016-09-04T00:39:54.435Z,0.00
2016-09-04T00:40:54.918Z,0.00
2016-09-04T00:41:55.429Z,0.00
2016-09-04T00:42:55.944Z,0.00
2016-09-04T00:43:56.458Z,0.00
2016-09-04T00:44:56.973Z,0.00
2016-09-04T00:45:57.491Z,0.00
2016-09-04T00:46:58.008Z,0.00
2016-09-04T00:47:58.527Z,0.00
2016-09-04T00:48:59.041Z,0.00
2016-09-04T00:49:59.561Z,0.00
2016-09-04T00:51:00.067Z,0.00
2016-09-04T00:52:00.588Z,0.00
2016-09-04T00:53:01.090Z,0.00
2016-09-04T00:54:01.605Z,0.00
2016-09-04T00:55:02.112Z,0.00
2016-09-04T00:56:02.620Z,0.00
2016-09-04T00:57:03.283Z,0.00
2016-09-04T00:58:03.643Z,0.00
2016-09-04T00:59:04.155Z,0.00
2016-09-04T01:00:04.664Z,0.00
2016-09-04T01:01:05.169Z,0.00
2016-09-04T01:02:05.676Z,0.00
2016-09-04T01:03:06.192Z,0.00
2016-09-04T01:04:06.706Z,0.00
2016-09-04T01:05:07.220Z,0.00
2016-09-04T01:06:07.739Z,0.00
2016-09-04T01:07:08.240Z,0.00
2016-09-04T01:08:08.755Z,0.00
2016-09-04T01:09:09.421Z,0.10
2016-09-04T01:10:09.786Z,0.20
2016-09-04T01:11:10.296Z,0.10
2016-09-04T01:12:10.803Z,0.20
2016-09-04T01:13:11.312Z,0.00
2016-09-04T01:14:11.825Z,0.00
2016-09-04T01:15:12.334Z,0.00
2016-09-04T01:16:12.851Z,0.00
2016-09-04T01:17:13.362Z,0.00
2016-09-04T01:18:13.872Z,0.00
2016-09-04T01:19:14.383Z,0.00
2016-09-04T01:20:14.893Z,0.00
2016-09-04T01:21:15.404Z,0.00
2016-09-04T01:22:15.918Z,0.00
2016-09-04T01:23:16.436Z,0.00
2016-09-04T01:24:17.100Z,0.00
2016-09-04T01:25:17.468Z,0.00
2016-09-04T01:26:17.978Z,0.00
2016-09-04T01:27:18.637Z,0.00
2016-09-04T01:28:19.001Z,0.00
2016-09-04T01:29:19.511Z,0.00
2016-09-04T01:30:20.029Z,0.30
2016-09-04T01:31:20.533Z,0.00
2016-09-04T01:32:21.044Z,0.30
2016-09-04T01:33:21.563Z,0.10
2016-09-04T01:34:22.070Z,0.00
2016-09-04T01:35:22.579Z,0.10
2016-09-04T01:36:23.089Z,0.00
2016-09-04T01:37:23.601Z,0.00
2016-09-04T01:38:24.114Z,0.00
2016-09-04T01:39:24.646Z,0.00
2016-09-04T01:40:25.159Z,0.00
2016-09-04T01:41:25.648Z,0.20
2016-09-04T01:42:26.160Z,0.00
2016-09-04T01:43:26.676Z,0.10
2016-09-04T01:44:27.186Z,0.10
2016-09-04T01:45:27.698Z,0.20
2016-09-04T01:46:28.208Z,0.10
2016-09-04T01:47:28.717Z,0.10
2016-09-04T01:48:29.230Z,0.00
2016-09-04T01:49:29.744Z,0.00
2016-09-04T01:50:30.253Z,0.00
2016-09-04T01:51:30.761Z,0.00
2016-09-04T01:52:31.424Z,0.00
2016-09-04T01:53:31.788Z,0.00
2016-09-04T01:54:33.501Z,0.00
2016-09-04T01:55:32.809Z,0.00
2016-09-04T01:56:33.321Z,0.00
2016-09-04T01:57:33.836Z,0.00
2016-09-04T01:58:34.354Z,0.00
2016-09-04T01:59:34.868Z,0.00
2016-09-04T02:00:35.389Z,0.00
2016-09-04T02:01:35.900Z,0.00
2016-09-04T02:02:36.413Z,0.00
2016-09-04T02:03:37.072Z,0.00
2016-09-04T02:04:37.433Z,0.00
2016-09-04T02:05:38.095Z,0.00
2016-09-04T02:06:38.461Z,0.00
2016-09-04T02:07:38.973Z,0.00
2016-09-04T02:08:39.483Z,0.00
2016-09-04T02:09:40.000Z,0.00
2016-09-04T02:10:40.519Z,0.00
2016-09-04T02:11:41.025Z,0.00
2016-09-04T02:12:41.535Z,0.00
2016-09-04T02:13:42.046Z,0.00
2016-09-04T02:14:42.559Z,0.00
2016-09-04T02:15:43.073Z,0.00
2016-09-04T02:16:43.592Z,0.00
2016-09-04T02:17:44.096Z,0.00
2016-09-04T02:18:44.610Z,0.00
2016-09-04T02:19:45.123Z,0.00
2016-09-04T02:20:45.631Z,0.00
2016-09-04T02:21:46.286Z,0.00
2016-09-04T02:22:46.651Z,0.00
2016-09-04T02:23:47.160Z,0.00
2016-09-04T02:24:47.670Z,0.00
2016-09-04T02:25:48.183Z,0.00
2016-09-04T02:26:48.694Z,0.00
2016-09-04T02:27:49.207Z,0.00
2016-09-04T02:28:49.721Z,0.00
2016-09-04T02:29:50.229Z,0.00
2016-09-04T02:30:50.890Z,0.00
2016-09-04T02:31:51.252Z,0.00
2016-09-04T02:32:51.771Z,0.00
2016-09-04T02:33:53.031Z,0.00
2016-09-04T02:34:52.798Z,0.00
2016-09-04T02:35:53.313Z,0.00
2016-09-04T02:36:53.838Z,0.00
2016-09-04T02:37:54.344Z,0.00
2016-09-04T02:38:54.856Z,0.00
2016-09-04T02:39:55.362Z,0.00
2016-09-04T02:40:55.874Z,0.00
2016-09-04T02:41:56.385Z,0.00
2016-09-04T02:42:56.895Z,0.00
2016-09-04T02:43:57.412Z,0.00
2016-09-04T02:44:57.923Z,0.00
2016-09-04T02:45:58.439Z,0.00
2016-09-04T02:46:58.952Z,0.00
2016-09-04T02:47:59.463Z,0.00
2016-09-04T02:48:59.974Z,0.00
2016-09-04T02:50:00.491Z,0.00
2016-09-04T02:51:01.005Z,0.00
2016-09-04T02:52:01.665Z,0.00
2016-09-04T02:53:02.036Z,0.00
2016-09-04T02:54:02.539Z,0.00
2016-09-04T02:55:03.054Z,0.00
2016-09-04T02:56:03.565Z,0.00
2016-09-04T02:57:04.076Z,0.00
2016-09-04T02:58:04.590Z,0.00
2016-09-04T02:59:05.101Z,0.00
2016-09-04T03:00:05.643Z,0.00
2016-09-04T03:01:06.154Z,0.00
2016-09-04T03:02:06.644Z,0.00
2016-09-04T03:03:07.177Z,0.00
2016-09-04T03:04:07.661Z,0.00
2016-09-04T03:05:08.171Z,0.00
2016-09-04T03:06:08.689Z,0.00
2016-09-04T03:07:09.221Z,0.00
2016-09-04T03:08:09.859Z,0.00
2016-09-04T03:09:10.229Z,0.00
2016-09-04T03:10:10.747Z,0.00
2016-09-04T03:11:11.271Z,0.00
2016-09-04T03:12:11.802Z,0.00
2016-09-04T03:13:12.446Z,0.00
2016-09-04T03:14:12.810Z,0.00
2016-09-04T03:15:13.323Z,0.00
2016-09-04T03:16:13.834Z,0.00
2016-09-04T03:17:14.351Z,0.00
2016-09-04T03:18:14.878Z,0.00
2016-09-04T03:19:15.376Z,0.00
2016-09-04T03:20:15.912Z,0.00
2016-09-04T03:21:16.396Z,0.00
2016-09-04T03:22:16.906Z,0.00
2016-09-04T03:23:17.423Z,0.00
2016-09-04T03:24:17.932Z,0.00
2016-09-04T03:25:18.448Z,0.00
2016-09-04T03:26:18.978Z,0.00
2016-09-04T03:27:19.488Z,0.00
2016-09-04T03:28:19.983Z,0.00
2016-09-04T03:29:20.505Z,0.00
2016-09-04T03:30:21.006Z,0.00
2016-09-04T03:31:21.521Z,0.00
2016-09-04T03:32:22.181Z,0.00
2016-09-04T03:33:22.543Z,0.00
2016-09-04T03:34:23.057Z,0.00
2016-09-04T03:35:23.578Z,0.00
2016-09-04T03:36:24.080Z,0.00
2016-09-04T03:37:24.592Z,0.00
2016-09-04T03:38:25.100Z,0.00
2016-09-04T03:39:25.615Z,0.00
2016-09-04T03:40:26.165Z,0.00
2016-09-04T03:41:26.640Z,0.00
2016-09-04T03:42:27.152Z,0.00
2016-09-04T03:43:27.811Z,0.00
2016-09-04T03:44:28.172Z,0.00
2016-09-04T03:45:28.685Z,0.00
2016-09-04T03:46:29.195Z,0.00
2016-09-04T03:47:29.715Z,0.00
2016-09-04T03:48:30.227Z,0.00
2016-09-04T03:49:30.741Z,0.00
2016-09-04T03:50:31.402Z,0.00
2016-09-04T03:51:31.767Z,0.00
2016-09-04T03:52:32.310Z,0.00
2016-09-04T03:53:32.787Z,0.00
2016-09-04T03:54:33.298Z,0.00
2016-09-04T03:55:33.808Z,0.00
2016-09-04T03:56:34.321Z,0.00
2016-09-04T03:57:34.832Z,0.00
2016-09-04T03:58:35.340Z,0.00
2016-09-04T03:59:35.855Z,0.00
2016-09-04T04:00:36.362Z,0.00
2016-09-04T04:01:36.874Z,0.00
2016-09-04T04:02:37.386Z,0.00
2016-09-04T04:03:37.898Z,0.00
2016-09-04T04:04:38.407Z,0.00
2016-09-04T04:05:38.913Z,0.00
2016-09-04T04:06:39.577Z,0.00
2016-09-04T04:07:39.941Z,0.00
2016-09-04T04:08:40.455Z,0.00
2016-09-04T04:09:40.968Z,0.00
2016-09-04T04:10:41.482Z,0.00
2016-09-04T04:11:41.992Z,0.00
2016-09-04T04:12:42.505Z,0.00
2016-09-04T04:13:43.012Z,0.20
2016-09-04T04:14:43.526Z,0.00
2016-09-04T04:15:44.037Z,0.00
2016-09-04T04:16:44.553Z,0.00
2016-09-04T04:17:45.209Z,0.00
2016-09-04T04:18:45.571Z,0.00
2016-09-04T04:19:46.104Z,0.00
2016-09-04T04:20:46.596Z,0.00
2016-09-04T04:21:47.105Z,0.00
2016-09-04T04:22:47.626Z,0.00
2016-09-04T04:23:48.282Z,0.00
2016-09-04T04:24:48.648Z,0.00
2016-09-04T04:25:49.157Z,0.00
2016-09-04T04:26:49.672Z,0.00
2016-09-04T04:27:50.201Z,0.00
2016-09-04T04:28:50.698Z,0.00
2016-09-04T04:29:51.205Z,0.00
2016-09-04T04:30:51.870Z,0.00
2016-09-04T04:31:52.235Z,0.00
2016-09-04T04:32:52.757Z,0.00
2016-09-04T04:33:53.263Z,0.00
2016-09-04T04:34:53.769Z,0.00
2016-09-04T04:35:54.431Z,0.00
2016-09-04T04:36:54.789Z,0.00
2016-09-04T04:37:55.307Z,0.00
2016-09-04T04:38:55.815Z,0.00
2016-09-04T04:39:56.324Z,0.00
2016-09-04T04:40:56.837Z,0.00
2016-09-04T04:41:57.350Z,0.00
2016-09-04T04:42:57.858Z,0.00
2016-09-04T04:43:58.385Z,0.00
2016-09-04T04:44:58.886Z,0.00
2016-09-04T04:45:59.546Z,0.00
2016-09-04T04:46:59.909Z,0.00
2016-09-04T04:48:00.418Z,0.00
2016-09-04T04:49:01.982Z,0.00
2016-09-04T04:50:01.440Z,0.00
2016-09-04T04:51:01.947Z,0.00
2016-09-04T04:52:02.486Z,0.00
2016-09-04T04:53:02.976Z,0.00
2016-09-04T04:54:03.502Z,0.00
2016-09-04T04:55:04.005Z,0.00
2016-09-04T04:56:04.510Z,0.00
2016-09-04T04:57:05.023Z,0.00
2016-09-04T04:58:05.538Z,0.00
2016-09-04T04:59:06.054Z,0.00
2016-09-04T05:00:06.586Z,0.00
2016-09-04T05:01:07.087Z,0.00
2016-09-04T05:02:07.601Z,0.00
2016-09-04T05:03:08.112Z,0.00
2016-09-04T05:04:08.622Z,0.00
2016-09-04T05:05:09.130Z,0.00
2016-09-04T05:06:09.642Z,0.00
2016-09-04T05:07:10.157Z,0.00
2016-09-04T05:08:10.675Z,0.00
2016-09-04T05:09:11.184Z,0.00
2016-09-04T05:10:11.699Z,0.00
2016-09-04T05:11:12.218Z,0.00
2016-09-04T05:12:12.723Z,0.00
2016-09-04T05:13:13.269Z,0.00
2016-09-04T05:14:13.745Z,0.00
2016-09-04T05:15:14.256Z,0.00
2016-09-04T05:16:14.769Z,0.00
2016-09-04T05:17:15.284Z,0.00
2016-09-04T05:18:15.796Z,0.00
2016-09-04T05:19:16.317Z,0.00
2016-09-04T05:20:16.817Z,0.00
2016-09-04T05:21:17.332Z,0.00
2016-09-04T05:22:17.845Z,0.00
2016-09-04T05:23:18.364Z,0.00
2016-09-04T05:24:18.869Z,0.00
2016-09-04T05:25:19.387Z,0.00
2016-09-04T05:26:19.901Z,0.00
2016-09-04T05:27:20.430Z,0.00
2016-09-04T05:28:20.919Z,0.00
2016-09-04T05:29:21.433Z,0.00
2016-09-04T05:30:21.946Z,0.00
2016-09-04T05:31:22.462Z,0.00
2016-09-04T05:32:22.973Z,0.00
2016-09-04T05:33:23.485Z,0.00
2016-09-04T05:34:24.001Z,0.00
2016-09-04T05:35:24.520Z,0.00
2016-09-04T05:36:25.042Z,0.00
2016-09-04T05:37:25.550Z,0.00
2016-09-04T05:38:26.067Z,0.00
2016-09-04T05:39:26.577Z,0.00
2016-09-04T05:40:27.091Z,0.00
2016-09-04T05:41:27.748Z,0.00
2016-09-04T05:42:28.112Z,0.00
2016-09-04T05:43:28.626Z,0.00
2016-09-04T05:44:29.137Z,0.00
2016-09-04T05:45:29.651Z,0.00
2016-09-04T05:46:30.184Z,0.00
2016-09-04T05:47:30.674Z,0.00
2016-09-04T05:48:31.184Z,0.00
2016-09-04T05:49:31.699Z,0.00
2016-09-04T05:50:32.204Z,0.00
2016-09-04T05:51:32.863Z,0.00
2016-09-04T05:52:33.229Z,0.00
2016-09-04T05:53:33.765Z,0.00
2016-09-04T05:54:34.403Z,0.00
2016-09-04T05:55:34.763Z,0.00
2016-09-04T05:56:35.276Z,0.00
2016-09-04T05:57:35.788Z,0.00
2016-09-04T05:58:36.319Z,0.00
2016-09-04T05:59:36.812Z,0.00
2016-09-04T06:00:37.317Z,0.00
2016-09-04T06:01:37.830Z,0.00
2016-09-04T06:02:38.344Z,0.00
2016-09-04T06:03:38.851Z,0.00
2016-09-04T06:04:39.382Z,0.00
2016-09-04T06:05:39.877Z,0.00
2016-09-04T06:06:40.390Z,0.00
2016-09-04T06:07:40.898Z,0.00
2016-09-04T06:08:41.415Z,0.00
2016-09-04T06:09:41.921Z,0.00
2016-09-04T06:10:42.438Z,0.00
2016-09-04T06:11:42.952Z,0.00
2016-09-04T06:12:43.470Z,0.00
2016-09-04T06:13:43.985Z,0.00
2016-09-04T06:14:44.498Z,0.00
2016-09-04T06:15:45.161Z,0.00
2016-09-04T06:16:45.520Z,0.00
2016-09-04T06:17:46.037Z,0.00
2016-09-04T06:18:46.541Z,0.00
2016-09-04T06:19:47.049Z,0.00
2016-09-04T06:20:47.557Z,0.00
2016-09-04T06:21:48.083Z,0.00
2016-09-04T06:22:48.591Z,0.00
2016-09-04T06:23:49.096Z,0.00
2016-09-04T06:24:49.611Z,0.00
2016-09-04T06:25:50.120Z,0.00
2016-09-04T06:26:50.631Z,0.00
2016-09-04T06:27:51.159Z,0.00
2016-09-04T06:28:51.654Z,0.00
2016-09-04T06:29:52.165Z,0.00
2016-09-04T06:30:52.677Z,0.00
2016-09-04T06:31:53.222Z,0.00
2016-09-04T06:32:53.703Z,0.00
2016-09-04T06:33:54.211Z,0.00
2016-09-04T06:34:54.720Z,0.00
2016-09-04T06:35:55.238Z,0.00
2016-09-04T06:36:55.750Z,0.00
2016-09-04T06:37:56.259Z,0.00
2016-09-04T06:38:56.771Z,0.00
2016-09-04T06:39:57.282Z,0.00
2016-09-04T06:40:57.795Z,0.00
2016-09-04T06:41:58.309Z,0.00
2016-09-04T06:42:58.818Z,0.00
2016-09-04T06:43:59.332Z,0.20
2016-09-04T06:44:59.881Z,0.20
2016-09-04T06:46:00.355Z,0.00
2016-09-04T06:47:00.871Z,0.10
2016-09-04T06:48:01.387Z,1.10
2016-09-04T06:49:01.903Z,0.80
2016-09-04T06:50:02.417Z,0.20
2016-09-04T06:51:02.933Z,0.10
2016-09-04T06:52:03.443Z,0.00
2016-09-04T06:53:03.954Z,0.00
2016-09-04T06:54:04.464Z,0.00
2016-09-04T06:55:04.983Z,0.00
2016-09-04T06:56:05.639Z,0.00
2016-09-04T06:57:06.005Z,0.00
2016-09-04T06:58:06.531Z,0.00
2016-09-04T06:59:07.026Z,0.00
2016-09-04T07:00:07.537Z,0.40
2016-09-04T07:01:08.050Z,0.60
2016-09-04T07:02:08.581Z,0.30
2016-09-04T07:03:09.072Z,0.00
2016-09-04T07:04:10.482Z,0.00
2016-09-04T07:05:10.096Z,0.00
2016-09-04T07:06:10.757Z,0.00
2016-09-04T07:07:11.267Z,0.00
2016-09-04T07:08:11.632Z,0.00
2016-09-04T07:09:12.148Z,0.00
2016-09-04T07:10:12.659Z,0.00
2016-09-04T07:11:13.161Z,0.00
2016-09-04T07:12:13.677Z,0.10
2016-09-04T07:13:14.189Z,0.30
2016-09-04T07:14:14.701Z,0.70
2016-09-04T07:15:15.215Z,0.70
2016-09-04T07:16:15.874Z,0.00
2016-09-04T07:17:16.239Z,0.00
2016-09-04T07:18:16.752Z,0.10
2016-09-04T07:19:17.266Z,0.30
2016-09-04T07:20:17.781Z,0.20
2016-09-04T07:21:18.287Z,0.20
2016-09-04T07:22:18.800Z,0.40
2016-09-04T07:23:19.318Z,0.20
2016-09-04T07:24:19.832Z,0.00
2016-09-04T07:25:20.355Z,0.00
2016-09-04T07:26:21.010Z,0.60
2016-09-04T07:27:21.371Z,0.60
2016-09-04T07:28:22.035Z,0.50
2016-09-04T07:29:22.396Z,1.20
2016-09-04T07:30:22.907Z,1.70
2016-09-04T07:31:23.432Z,1.00
2016-09-04T07:32:23.934Z,0.60
2016-09-04T07:33:24.449Z,0.60
2016-09-04T07:34:24.956Z,0.40
2016-09-04T07:35:25.467Z,0.40
2016-09-04T07:36:25.982Z,0.40
2016-09-04T07:37:26.644Z,1.10
2016-09-04T07:38:27.155Z,1.30
2016-09-04T07:39:27.518Z,1.10
2016-09-04T07:40:28.030Z,1.20
2016-09-04T07:41:28.542Z,1.10
2016-09-04T07:42:29.050Z,1.60
2016-09-04T07:43:29.570Z,2.10
2016-09-04T07:44:30.081Z,1.20
2016-09-04T07:45:30.587Z,2.10
2016-09-04T07:46:31.096Z,2.40
2016-09-04T07:47:31.615Z,2.60
2016-09-04T07:48:32.155Z,3.50
2016-09-04T07:49:32.631Z,2.40
2016-09-04T07:50:33.140Z,2.80
2016-09-04T07:51:33.674Z,1.30
2016-09-04T07:52:34.190Z,1.20
2016-09-04T07:53:34.674Z,1.00
2016-09-04T07:54:35.192Z,1.00
2016-09-04T07:55:35.703Z,1.10
2016-09-04T07:56:36.221Z,2.00
2016-09-04T07:57:36.732Z,2.30
2016-09-04T07:58:37.243Z,1.40
2016-09-04T07:59:37.755Z,1.10
2016-09-04T08:00:38.277Z,1.80
2016-09-04T08:01:38.791Z,1.00
2016-09-04T08:02:39.304Z,1.00
2016-09-04T08:03:39.818Z,0.80
2016-09-04T08:04:40.340Z,0.90
2016-09-04T08:05:40.847Z,0.70
2016-09-04T08:06:41.354Z,1.60
2016-09-04T08:07:41.893Z,1.40
2016-09-04T08:08:42.379Z,1.10
2016-09-04T08:09:42.893Z,0.80
2016-09-04T08:10:43.406Z,0.70
2016-09-04T08:11:43.919Z,0.40
2016-09-04T08:12:44.440Z,0.70
2016-09-04T08:13:44.942Z,1.40
2016-09-04T08:14:45.455Z,0.50
2016-09-04T08:15:45.969Z,1.60
2016-09-04T08:16:46.490Z,0.80
2016-09-04T08:17:46.995Z,0.90
2016-09-04T08:18:47.507Z,1.20
2016-09-04T08:19:48.039Z,1.10
2016-09-04T08:20:48.531Z,1.90
2016-09-04T08:21:49.043Z,2.00
2016-09-04T08:22:49.556Z,1.90
2016-09-04T08:23:50.081Z,1.20
2016-09-04T08:24:50.589Z,1.60
2016-09-04T08:25:51.096Z,2.50
2016-09-04T08:26:51.606Z,1.90
2016-09-04T08:27:52.113Z,1.70
2016-09-04T08:28:52.627Z,1.80
2016-09-04T08:29:53.179Z,1.40
2016-09-04T08:30:53.800Z,1.40
2016-09-04T08:31:54.166Z,1.10
2016-09-04T08:32:54.679Z,1.70
2016-09-04T08:33:55.190Z,1.10
2016-09-04T08:34:55.701Z,1.20
2016-09-04T08:35:56.222Z,1.20
2016-09-04T08:36:56.740Z,1.10
2016-09-04T08:37:57.405Z,1.40
2016-09-04T08:38:57.922Z,2.10
2016-09-04T08:39:58.289Z,1.10
2016-09-04T08:40:58.793Z,2.10
2016-09-04T08:41:59.312Z,1.90
2016-09-04T08:42:59.816Z,1.60
2016-09-04T08:44:00.328Z,1.30
2016-09-04T08:45:00.842Z,1.30
2016-09-04T08:46:01.354Z,1.80
2016-09-04T08:47:01.863Z,1.00
2016-09-04T08:48:02.376Z,2.30
2016-09-04T08:49:02.891Z,2.30
2016-09-04T08:50:03.399Z,1.60
2016-09-04T08:51:03.915Z,1.80
2016-09-04T08:52:04.427Z,1.80
2016-09-04T08:53:04.936Z,2.40
2016-09-04T08:54:05.446Z,1.30
2016-09-04T08:55:05.962Z,1.30
2016-09-04T08:56:06.477Z,1.00
2016-09-04T08:57:07.013Z,1.00
2016-09-04T08:58:07.544Z,0.90
2016-09-04T08:59:08.046Z,1.20
2016-09-04T09:00:08.523Z,2.50
2016-09-04T09:01:09.037Z,2.90
2016-09-04T09:02:09.550Z,1.40
2016-09-04T09:03:10.064Z,1.40
2016-09-04T09:04:10.569Z,2.00
2016-09-04T09:05:11.080Z,2.90
2016-09-04T09:06:11.590Z,2.70
2016-09-04T09:07:12.107Z,1.90
2016-09-04T09:08:12.622Z,3.80
2016-09-04T09:09:13.136Z,3.50
2016-09-04T09:10:13.646Z,1.50
2016-09-04T09:11:14.163Z,2.30
2016-09-04T09:12:14.672Z,1.90
2016-09-04T09:13:15.192Z,1.20
2016-09-04T09:14:15.728Z,1.80
2016-09-04T09:15:16.218Z,1.40
2016-09-04T09:16:16.731Z,1.10
2016-09-04T09:17:17.241Z,1.20
2016-09-04T09:18:17.761Z,1.40
2016-09-04T09:19:18.267Z,1.40
2016-09-04T09:20:18.779Z,1.40
2016-09-04T09:21:19.287Z,0.80
2016-09-04T09:22:19.796Z,1.00
2016-09-04T09:23:20.321Z,0.90
2016-09-04T09:24:20.819Z,1.40
2016-09-04T09:25:21.327Z,1.20
2016-09-04T09:26:21.839Z,1.20
2016-09-04T09:27:22.503Z,1.40
2016-09-04T09:28:22.862Z,0.90
2016-09-04T09:29:23.374Z,1.10
2016-09-04T09:30:23.891Z,0.80
2016-09-04T09:31:24.418Z,1.50
2016-09-04T09:32:25.058Z,0.90
2016-09-04T09:33:25.421Z,1.60
2016-09-04T09:34:25.937Z,1.90
2016-09-04T09:35:26.448Z,4.00
2016-09-04T09:36:26.968Z,3.80
2016-09-04T09:37:27.475Z,1.30
2016-09-04T09:38:27.988Z,1.10
2016-09-04T09:39:28.499Z,2.70
2016-09-04T09:40:29.014Z,2.70
2016-09-04T09:41:29.523Z,1.30
2016-09-04T09:42:30.038Z,1.90
2016-09-04T09:43:30.547Z,1.20
2016-09-04T09:44:31.083Z,0.10
2016-09-04T09:45:31.571Z,0.50
2016-09-04T09:46:32.092Z,0.30
2016-09-04T09:47:32.600Z,1.40
2016-09-04T09:48:33.113Z,2.20
2016-09-04T09:49:33.779Z,1.70
2016-09-04T09:50:34.143Z,0.50
2016-09-04T09:51:34.654Z,0.60
2016-09-04T09:52:35.172Z,1.20
2016-09-04T09:53:35.680Z,1.20
2016-09-04T09:54:36.198Z,1.00
2016-09-04T09:55:36.710Z,0.40
2016-09-04T09:56:37.250Z,0.20
2016-09-04T09:57:37.759Z,1.90
2016-09-04T09:58:38.257Z,1.00
2016-09-04T09:59:38.753Z,0.60
2016-09-04T10:00:39.273Z,2.00
2016-09-04T10:01:39.776Z,2.30
2016-09-04T10:02:40.283Z,2.20
2016-09-04T10:03:40.794Z,0.60
2016-09-04T10:04:41.308Z,1.60
2016-09-04T10:05:41.818Z,2.10
2016-09-04T10:06:42.328Z,1.80
2016-09-04T10:07:42.841Z,1.30
2016-09-04T10:08:43.355Z,1.20
2016-09-04T10:09:44.011Z,2.00
2016-09-04T10:10:44.397Z,1.80
2016-09-04T10:11:44.886Z,0.50
2016-09-04T10:12:45.396Z,1.50
2016-09-04T10:13:45.914Z,1.40
2016-09-04T10:14:46.420Z,1.60
2016-09-04T10:15:46.922Z,1.90
2016-09-04T10:16:47.447Z,1.00
2016-09-04T10:17:48.093Z,0.50
2016-09-04T10:18:48.460Z,0.30
2016-09-04T10:19:48.991Z,0.20
2016-09-04T10:20:49.483Z,0.50
2016-09-04T10:21:49.997Z,0.60
2016-09-04T10:22:50.658Z,0.30
2016-09-04T10:23:51.024Z,0.40
2016-09-04T10:24:51.542Z,0.70
2016-09-04T10:25:52.057Z,0.90
2016-09-04T10:26:52.569Z,0.90
2016-09-04T10:27:53.232Z,1.50
2016-09-04T10:28:53.591Z,1.10
2016-09-04T10:29:54.103Z,0.20
2016-09-04T10:30:54.620Z,0.00
2016-09-04T10:31:55.132Z,0.10
2016-09-04T10:32:55.659Z,0.20
2016-09-04T10:33:56.157Z,0.10
2016-09-04T10:34:56.662Z,0.40
2016-09-04T10:35:57.177Z,0.30
2016-09-04T10:36:57.682Z,0.00
2016-09-04T10:37:58.198Z,0.00
2016-09-04T10:38:58.720Z,0.90
2016-09-04T10:39:59.222Z,2.30
2016-09-04T10:41:00.336Z,1.90
2016-09-04T10:42:00.246Z,1.20
2016-09-04T10:43:00.760Z,0.90
2016-09-04T10:44:01.275Z,1.10
2016-09-04T10:45:01.784Z,1.90
2016-09-04T10:46:02.299Z,0.70
2016-09-04T10:47:02.810Z,0.20
2016-09-04T10:48:03.471Z,0.60
2016-09-04T10:49:03.860Z,0.70
2016-09-04T10:50:04.346Z,1.70
2016-09-04T10:51:05.009Z,1.60
2016-09-04T10:52:05.365Z,0.90
2016-09-04T10:53:05.879Z,0.10
2016-09-04T10:54:06.391Z,0.00
2016-09-04T10:55:06.898Z,0.50
2016-09-04T10:56:07.413Z,0.80
2016-09-04T10:57:07.944Z,0.10
2016-09-04T10:58:08.441Z,0.10
2016-09-04T10:59:08.958Z,0.30
2016-09-04T11:00:09.475Z,0.80
2016-09-04T11:01:09.992Z,1.50
2016-09-04T11:02:10.529Z,0.40
2016-09-04T11:03:11.032Z,2.00
2016-09-04T11:04:11.551Z,1.20
2016-09-04T11:05:12.041Z,0.90
2016-09-04T11:06:12.551Z,0.50
2016-09-04T11:07:13.065Z,0.30
2016-09-04T11:08:13.577Z,1.10
2016-09-04T11:09:14.086Z,1.70
2016-09-04T11:10:14.605Z,1.50
2016-09-04T11:11:15.142Z,2.00
2016-09-04T11:12:15.631Z,1.30
2016-09-04T11:13:16.149Z,0.80
2016-09-04T11:14:16.663Z,2.00
2016-09-04T11:15:17.181Z,2.10
2016-09-04T11:16:17.700Z,1.80
2016-09-04T11:17:18.208Z,2.50
2016-09-04T11:18:18.721Z,2.70
2016-09-04T11:19:19.240Z,2.40
2016-09-04T11:20:19.751Z,3.00
2016-09-04T11:21:20.265Z,2.10
2016-09-04T11:22:20.781Z,2.90
2016-09-04T11:23:21.296Z,2.10
2016-09-04T11:24:21.799Z,1.70
2016-09-04T11:25:22.321Z,2.60
2016-09-04T11:26:22.828Z,2.90
2016-09-04T11:27:23.342Z,2.40
2016-09-04T11:28:23.858Z,2.20
2016-09-04T11:29:24.362Z,1.30
2016-09-04T11:30:24.868Z,2.50
2016-09-04T11:31:25.396Z,2.30
2016-09-04T11:32:25.887Z,1.60
2016-09-04T11:33:26.405Z,1.80
2016-09-04T11:34:26.924Z,2.00
2016-09-04T11:35:27.435Z,3.80
2016-09-04T11:36:27.949Z,1.70
2016-09-04T11:37:28.463Z,1.20
2016-09-04T11:38:28.981Z,1.50
2016-09-04T11:39:29.491Z,1.70
2016-09-04T11:40:30.008Z,2.00
2016-09-04T11:41:30.520Z,2.50
2016-09-04T11:42:31.034Z,2.70
2016-09-04T11:43:31.544Z,4.20
2016-09-04T11:44:32.055Z,2.80
2016-09-04T11:45:32.566Z,2.90
2016-09-04T11:46:33.080Z,3.90
2016-09-04T11:47:33.594Z,3.60
2016-09-04T11:48:34.110Z,2.60
2016-09-04T11:49:34.623Z,2.60
2016-09-04T11:50:35.136Z,2.40
2016-09-04T11:51:35.686Z,2.90
2016-09-04T11:52:36.159Z,2.90
2016-09-04T11:53:36.672Z,2.30
2016-09-04T11:54:37.187Z,2.30
2016-09-04T11:55:37.699Z,1.70
2016-09-04T11:56:38.211Z,1.90
2016-09-04T11:57:38.725Z,1.90
2016-09-04T11:58:39.239Z,1.40
2016-09-04T11:59:39.751Z,1.00
2016-09-04T12:00:40.266Z,0.70
2016-09-04T12:01:40.778Z,1.50
2016-09-04T12:02:41.291Z,1.50
2016-09-04T12:03:41.805Z,1.30
2016-09-04T12:04:42.314Z,1.00
2016-09-04T12:05:42.831Z,0.70
2016-09-04T12:06:43.338Z,0.80
2016-09-04T12:07:43.852Z,0.80
2016-09-04T12:08:44.367Z,0.90
2016-09-04T12:09:44.875Z,1.10
2016-09-04T12:10:45.391Z,0.50
2016-09-04T12:11:45.917Z,0.70
2016-09-04T12:12:46.429Z,0.50
2016-09-04T12:13:46.943Z,0.70
2016-09-04T12:14:47.459Z,1.30
2016-09-04T12:15:47.975Z,0.40
2016-09-04T12:16:48.485Z,0.00
2016-09-04T12:17:48.997Z,0.60
2016-09-04T12:18:49.510Z,0.60
2016-09-04T12:19:50.023Z,0.10
2016-09-04T12:20:50.532Z,0.30
2016-09-04T12:21:51.037Z,0.10
2016-09-04T12:22:51.548Z,0.30
2016-09-04T12:23:52.067Z,0.40
2016-09-04T12:24:52.605Z,0.40
2016-09-04T12:25:53.083Z,0.20
2016-09-04T12:26:53.600Z,0.70
2016-09-04T12:27:54.103Z,0.40
2016-09-04T12:28:54.622Z,0.50
2016-09-04T12:29:55.135Z,0.40
2016-09-04T12:30:55.660Z,0.60
2016-09-04T12:31:56.159Z,0.50
2016-09-04T12:32:56.693Z,0.60
2016-09-04T12:33:57.183Z,1.20
2016-09-04T12:34:57.699Z,1.00
2016-09-04T12:35:58.202Z,0.90
2016-09-04T12:36:58.866Z,0.60
2016-09-04T12:37:59.225Z,0.60
2016-09-04T12:38:59.738Z,0.50
2016-09-04T12:40:00.270Z,0.60
2016-09-04T12:41:00.782Z,0.50
2016-09-04T12:42:01.267Z,0.80
2016-09-04T12:43:01.778Z,0.80
2016-09-04T12:44:02.287Z,1.00
2016-09-04T12:45:02.801Z,0.70
2016-09-04T12:46:03.315Z,0.70
2016-09-04T12:47:03.836Z,0.60
2016-09-04T12:48:04.342Z,0.40
2016-09-04T12:49:04.862Z,0.10
2016-09-04T12:50:05.378Z,0.10
2016-09-04T12:51:05.893Z,0.10
2016-09-04T12:52:06.555Z,0.20
2016-09-04T12:53:07.063Z,0.10
2016-09-04T12:54:07.433Z,0.40
2016-09-04T12:55:07.946Z,0.60
2016-09-04T12:56:08.455Z,0.90
2016-09-04T12:57:08.968Z,1.40
2016-09-04T12:58:09.478Z,0.50
2016-09-04T12:59:09.991Z,0.80
2016-09-04T13:00:10.501Z,0.40
2016-09-04T13:01:11.024Z,0.60
2016-09-04T13:02:11.516Z,0.50
2016-09-04T13:03:12.032Z,1.20
2016-09-04T13:04:12.554Z,1.50
2016-09-04T13:05:13.057Z,1.00
2016-09-04T13:06:13.569Z,1.10
2016-09-04T13:07:14.230Z,0.70
2016-09-04T13:08:14.617Z,1.70
2016-09-04T13:09:15.106Z,1.90
2016-09-04T13:10:15.608Z,2.10
2016-09-04T13:11:16.125Z,1.90
2016-09-04T13:12:16.638Z,0.90
2016-09-04T13:13:17.148Z,1.30
2016-09-04T13:14:17.662Z,1.80
2016-09-04T13:15:18.180Z,1.20
2016-09-04T13:16:18.836Z,0.70
2016-09-04T13:17:19.205Z,2.50
2016-09-04T13:18:19.714Z,1.20
2016-09-04T13:19:20.226Z,0.50
2016-09-04T13:20:20.738Z,2.00
2016-09-04T13:21:21.250Z,1.40
2016-09-04T13:22:21.786Z,1.50
2016-09-04T13:23:22.278Z,0.80
2016-09-04T13:24:22.789Z,0.70
2016-09-04T13:25:23.317Z,0.40